sensor_id;sensor_type;location;lat;lon;timestamp;pressure;altitude;pressure_sealevel;temperature;humidity
55217;BME280;41086;46.736;15.666;2023-01-24T00:00:18;99560.19;;;-0.28;100.00
55217;BME280;41086;46.736;15.666;2023-01-24T00:02:45;99568.84;;;-0.23;100.00
55217;BME280;41086;46.736;15.666;2023-01-24T00:05:12;99570.59;;;-0.25;100.00
55217;BME280;41086;46.736;15.666;2023-01-24T00:07:39;99563.66;;;-0.28;100.00
55217;BME280;41086;46.736;15.666;2023-01-24T00:10:06;99515.22;;;-0.50;100.00
55217;BME280;41086;46.736;15.666;2023-01-24T00:12:33;99548.97;;;-0.35;100.00
55217;BME280;41086;46.736;15.666;2023-01-24T00:15:00;99559.31;;;-0.24;100.00
55217;BME280;41086;46.736;15.666;2023-01-24T00:17:27;99562.78;;;-0.24;100.00
55217;BME280;41086;46.736;15.666;2023-01-24T00:19:53;99553.22;;;-0.23;100.00
55217;BME280;41086;46.736;15.666;2023-01-24T00:22:20;99526.38;;;-0.34;100.00
55217;BME280;41086;46.736;15.666;2023-01-24T00:24:47;99545.41;;;-0.21;100.00
55217;BME280;41086;46.736;15.666;2023-01-24T00:27:15;99547.94;;;-0.17;100.00
55217;BME280;41086;46.736;15.666;2023-01-24T00:29:43;99553.97;;;-0.07;100.00
55217;BME280;41086;46.736;15.666;2023-01-24T00:32:09;99568.69;;;-0.05;100.00
55217;BME280;41086;46.736;15.666;2023-01-24T00:34:37;99548.78;;;-0.12;100.00
55217;BME280;41086;46.736;15.666;2023-01-24T00:37:05;99577.28;;;0.05;100.00
55217;BME280;41086;46.736;15.666;2023-01-24T00:39:32;99575.53;;;0.07;100.00
55217;BME280;41086;46.736;15.666;2023-01-24T00:41:59;99581.59;;;0.12;100.00
55217;BME280;41086;46.736;15.666;2023-01-24T00:44:25;99589.41;;;0.14;100.00
55217;BME280;41086;46.736;15.666;2023-01-24T00:46:53;99572.91;;;0.10;100.00
55217;BME280;41086;46.736;15.666;2023-01-24T00:49:19;99569.47;;;0.08;100.00
55217;BME280;41086;46.736;15.666;2023-01-24T00:51:46;99597.16;;;0.18;100.00
55217;BME280;41086;46.736;15.666;2023-01-24T00:54:13;99591.94;;;0.18;100.00
55217;BME280;41086;46.736;15.666;2023-01-24T00:56:40;99592.81;;;0.19;100.00
55217;BME280;41086;46.736;15.666;2023-01-24T00:59:07;99592.00;;;0.14;100.00
55217;BME280;41086;46.736;15.666;2023-01-24T01:01:35;99580.91;;;-0.10;100.00
55217;BME280;41086;46.736;15.666;2023-01-24T01:04:02;99595.69;;;-0.12;100.00
55217;BME280;41086;46.736;15.666;2023-01-24T01:06:29;99593.94;;;-0.10;100.00
55217;BME280;41086;46.736;15.666;2023-01-24T01:08:56;99580.09;;;-0.18;100.00
55217;BME280;41086;46.736;15.666;2023-01-24T01:11:23;99597.38;;;-0.05;100.00
55217;BME280;41086;46.736;15.666;2023-01-24T01:13:54;99598.22;;;-0.03;100.00
55217;BME280;41086;46.736;15.666;2023-01-24T01:16:23;99599.00;;;0.07;100.00
55217;BME280;41086;46.736;15.666;2023-01-24T01:18:53;99614.53;;;0.22;100.00
55217;BME280;41086;46.736;15.666;2023-01-24T01:21:21;99609.38;;;0.15;100.00
55217;BME280;41086;46.736;15.666;2023-01-24T01:23:49;99608.50;;;0.13;100.00
55217;BME280;41086;46.736;15.666;2023-01-24T01:26:19;99602.44;;;0.12;100.00
55217;BME280;41086;46.736;15.666;2023-01-24T01:28:46;99620.69;;;0.12;100.00
55217;BME280;41086;46.736;15.666;2023-01-24T01:31:14;99620.69;;;0.11;100.00
55217;BME280;41086;46.736;15.666;2023-01-24T01:33:43;99614.66;;;0.06;100.00
55217;BME280;41086;46.736;15.666;2023-01-24T01:36:10;99588.75;;;-0.13;100.00
55217;BME280;41086;46.736;15.666;2023-01-24T01:38:37;99616.47;;;-0.03;100.00
55217;BME280;41086;46.736;15.666;2023-01-24T01:41:05;99592.25;;;-0.15;100.00
55217;BME280;41086;46.736;15.666;2023-01-24T01:43:32;99593.09;;;-0.15;100.00
55217;BME280;41086;46.736;15.666;2023-01-24T01:48:36;99618.13;;;0.05;100.00
55217;BME280;41086;46.736;15.666;2023-01-24T01:54:25;99619.94;;;-0.02;100.00
55217;BME280;41086;46.736;15.666;2023-01-24T01:56:59;99622.50;;;-0.01;100.00
55217;BME280;41086;46.736;15.666;2023-01-24T01:59:49;99622.56;;;-0.05;100.00
55217;BME280;41086;46.736;15.666;2023-01-24T02:02:20;99629.47;;;-0.01;100.00
55217;BME280;41086;46.736;15.666;2023-01-24T02:04:54;99621.59;;;0.07;100.00
55217;BME280;41086;46.736;15.666;2023-01-24T02:07:26;99609.50;;;-0.04;100.00
55217;BME280;41086;46.736;15.666;2023-01-24T02:09:56;99620.78;;;0.03;100.00
55217;BME280;41086;46.736;15.666;2023-01-24T02:12:33;99620.78;;;0.02;100.00
55217;BME280;41086;46.736;15.666;2023-01-24T02:15:11;99619.91;;;-0.01;100.00
55217;BME280;41086;46.736;15.666;2023-01-24T02:17:57;99587.88;;;-0.16;100.00
55217;BME280;41086;46.736;15.666;2023-01-24T02:20:38;99618.22;;;-0.05;100.00
55217;BME280;41086;46.736;15.666;2023-01-24T02:28:27;99608.69;;;-0.09;100.00
55217;BME280;41086;46.736;15.666;2023-01-24T02:30:57;99625.13;;;-0.01;100.00
55217;BME280;41086;46.736;15.666;2023-01-24T02:33:24;99574.97;;;-0.30;100.00
55217;BME280;41086;46.736;15.666;2023-01-24T02:35:51;99626.00;;;0.00;100.00
55217;BME280;41086;46.736;15.666;2023-01-24T02:38:24;99610.34;;;0.03;100.00
55217;BME280;41086;46.736;15.666;2023-01-24T02:40:55;99610.22;;;0.17;100.00
55217;BME280;41086;46.736;15.666;2023-01-24T02:43:25;99613.69;;;0.16;100.00
55217;BME280;41086;46.736;15.666;2023-01-24T02:45:54;99621.50;;;0.16;100.00
55217;BME280;41086;46.736;15.666;2023-01-24T02:48:21;99615.44;;;0.15;100.00
55217;BME280;41086;46.736;15.666;2023-01-24T02:50:48;99622.38;;;0.18;100.00
55217;BME280;41086;46.736;15.666;2023-01-24T02:53:33;99616.34;;;0.14;100.00
55217;BME280;41086;46.736;15.666;2023-01-24T02:56:04;99614.66;;;0.06;100.00
55217;BME280;41086;46.736;15.666;2023-01-24T02:58:49;99606.94;;;-0.05;100.00
55217;BME280;41086;46.736;15.666;2023-01-24T03:01:16;99616.47;;;-0.06;100.00
55217;BME280;41086;46.736;15.666;2023-01-24T03:03:49;99597.38;;;-0.05;100.00
55217;BME280;41086;46.736;15.666;2023-01-24T03:06:17;99627.63;;;0.15;100.00
55217;BME280;41086;46.736;15.666;2023-01-24T03:08:45;99625.00;;;0.16;100.00
55217;BME280;41086;46.736;15.666;2023-01-24T03:11:22;99633.69;;;0.17;100.00
55217;BME280;41086;46.736;15.666;2023-01-24T03:13:49;99635.38;;;0.22;100.00
55217;BME280;41086;46.736;15.666;2023-01-24T03:16:35;99629.19;;;0.34;100.00
55217;BME280;41086;46.736;15.666;2023-01-24T03:19:20;99629.25;;;0.28;100.00
55217;BME280;41086;46.736;15.666;2023-01-24T03:22:06;99634.50;;;0.24;100.00
55217;BME280;41086;46.736;15.666;2023-01-24T03:24:51;99637.19;;;0.13;100.00
55217;BME280;41086;46.736;15.666;2023-01-24T03:27:38;99630.25;;;0.10;100.00
55217;BME280;41086;46.736;15.666;2023-01-24T03:30:28;99628.44;;;0.18;100.00
55217;BME280;41086;46.736;15.666;2023-01-24T03:33:14;99624.91;;;0.26;100.00
55217;BME280;41086;46.736;15.666;2023-01-24T03:35:59;99640.63;;;0.18;100.00
55217;BME280;41086;46.736;15.666;2023-01-24T03:38:32;99561.03;;;-0.21;100.00
55217;BME280;41086;46.736;15.666;2023-01-24T03:41:19;99633.63;;;0.23;100.00
55217;BME280;41086;46.736;15.666;2023-01-24T03:43:46;99646.66;;;0.23;100.00
55217;BME280;41086;46.736;15.666;2023-01-24T03:46:13;99645.00;;;0.14;100.00
55217;BME280;41086;46.736;15.666;2023-01-24T03:48:51;99635.47;;;0.10;100.00
55217;BME280;41086;46.736;15.666;2023-01-24T03:51:25;99636.22;;;0.26;100.00
55217;BME280;41086;46.736;15.666;2023-01-24T03:54:11;99624.16;;;0.13;100.00
55217;BME280;41086;46.736;15.666;2023-01-24T03:56:49;99634.47;;;0.28;100.00
55217;BME280;41086;46.736;15.666;2023-01-24T03:59:18;99635.31;;;0.27;100.00
55217;BME280;41086;46.736;15.666;2023-01-24T04:01:45;99637.13;;;0.20;100.00
55217;BME280;41086;46.736;15.666;2023-01-24T04:04:26;99563.66;;;-0.28;100.00
55217;BME280;41086;46.736;15.666;2023-01-24T04:07:13;99624.94;;;0.21;100.00
55217;BME280;41086;46.736;15.666;2023-01-24T04:09:54;99605.88;;;0.17;100.00
55217;BME280;41086;46.736;15.666;2023-01-24T04:12:20;99635.25;;;0.35;100.00
55217;BME280;41086;46.736;15.666;2023-01-24T04:14:47;99637.03;;;0.30;100.00
55217;BME280;41086;46.736;15.666;2023-01-24T04:17:14;99637.94;;;0.29;100.00
55217;BME280;41086;46.736;15.666;2023-01-24T04:19:44;99581.69;;;0.03;100.00
55217;BME280;41086;46.736;15.666;2023-01-24T04:22:11;99637.03;;;0.30;100.00
55217;BME280;41086;46.736;15.666;2023-01-24T04:24:38;99633.63;;;0.23;100.00
55217;BME280;41086;46.736;15.666;2023-01-24T04:27:05;99638.84;;;0.21;100.00
55217;BME280;41086;46.736;15.666;2023-01-24T04:30:05;99631.09;;;0.15;100.00
55217;BME280;41086;46.736;15.666;2023-01-24T04:32:34;99636.31;;;0.12;100.00
55217;BME280;41086;46.736;15.666;2023-01-24T04:35:08;99642.34;;;0.22;100.00
55217;BME280;41086;46.736;15.666;2023-01-24T04:38:04;99639.72;;;0.24;100.00
55217;BME280;41086;46.736;15.666;2023-01-24T04:40:58;99657.03;;;0.29;100.00
55217;BME280;41086;46.736;15.666;2023-01-24T04:43:28;99629.28;;;0.25;100.00
55217;BME280;41086;46.736;15.666;2023-01-24T04:45:58;99643.09;;;0.36;100.00
55217;BME280;41086;46.736;15.666;2023-01-24T04:48:35;99641.31;;;0.40;100.00
55217;BME280;41086;46.736;15.666;2023-01-24T04:51:03;99628.34;;;0.29;100.00
55217;BME280;41086;46.736;15.666;2023-01-24T04:53:31;99639.63;;;0.36;100.00
55217;BME280;41086;46.736;15.666;2023-01-24T04:56:01;99653.50;;;0.39;100.00
55217;BME280;41086;46.736;15.666;2023-01-24T04:58:32;99664.03;;;0.26;100.00
55217;BME280;41086;46.736;15.666;2023-01-24T05:01:01;99652.78;;;0.20;100.00
55217;BME280;41086;46.736;15.666;2023-01-24T05:03:34;99657.00;;;0.32;100.00
55217;BME280;41086;46.736;15.666;2023-01-24T05:06:02;99661.41;;;0.29;100.00
55217;BME280;41086;46.736;15.666;2023-01-24T05:08:29;99658.78;;;0.29;100.00
55217;BME280;41086;46.736;15.666;2023-01-24T05:11:04;99627.63;;;0.13;100.00
55217;BME280;41086;46.736;15.666;2023-01-24T05:13:36;99673.56;;;0.28;100.00
55217;BME280;41086;46.736;15.666;2023-01-24T05:16:03;99677.13;;;0.19;100.00
55217;BME280;41086;46.736;15.666;2023-01-24T05:18:30;99678.91;;;0.13;100.00
55217;BME280;41086;46.736;15.666;2023-01-24T05:21:07;99678.00;;;0.15;100.00
55217;BME280;41086;46.736;15.666;2023-01-24T05:23:34;99675.47;;;0.09;100.00
55217;BME280;41086;46.736;15.666;2023-01-24T05:26:01;99671.06;;;0.13;100.00
55217;BME280;41086;46.736;15.666;2023-01-24T05:28:30;99681.44;;;0.24;100.00
55217;BME280;41086;46.736;15.666;2023-01-24T05:30:58;99625.13;;;-0.01;100.00
55217;BME280;41086;46.736;15.666;2023-01-24T05:33:29;99677.94;;;0.28;100.00
55217;BME280;41086;46.736;15.666;2023-01-24T05:35:58;99684.03;;;0.25;100.00
55217;BME280;41086;46.736;15.666;2023-01-24T05:38:26;99662.44;;;0.09;100.00
55217;BME280;41086;46.736;15.666;2023-01-24T05:40:53;99670.22;;;0.12;100.00
55217;BME280;41086;46.736;15.666;2023-01-24T05:43:20;99687.59;;;0.15;100.00
55217;BME280;41086;46.736;15.666;2023-01-24T05:45:47;99678.16;;;-0.05;100.00
55217;BME280;41086;46.736;15.666;2023-01-24T05:48:13;99692.03;;;0.01;100.00
55217;BME280;41086;46.736;15.666;2023-01-24T05:50:42;99684.19;;;0.02;100.00
55217;BME280;41086;46.736;15.666;2023-01-24T05:53:10;99700.66;;;0.09;100.00
55217;BME280;41086;46.736;15.666;2023-01-24T05:55:36;99692.91;;;-0.02;100.00
55217;BME280;41086;46.736;15.666;2023-01-24T05:58:03;99686.03;;;-0.12;100.00
55217;BME280;41086;46.736;15.666;2023-01-24T06:00:52;99705.06;;;-0.01;100.00
55217;BME280;41086;46.736;15.666;2023-01-24T06:03:33;99712.84;;;0.04;100.00
55217;BME280;41086;46.736;15.666;2023-01-24T06:05:59;99711.16;;;-0.02;100.00
55217;BME280;41086;46.736;15.666;2023-01-24T06:08:28;99713.75;;;0.01;100.00
55217;BME280;41086;46.736;15.666;2023-01-24T06:11:01;99727.59;;;0.08;100.00
55217;BME280;41086;46.736;15.666;2023-01-24T06:13:28;99725.88;;;0.08;100.00
55217;BME280;41086;46.736;15.666;2023-01-24T06:16:23;99732.78;;;0.11;100.00
55217;BME280;41086;46.736;15.666;2023-01-24T06:18:51;99728.47;;;0.07;100.00
55217;BME280;41086;46.736;15.666;2023-01-24T06:24:00;99725.88;;;0.08;100.00
55217;BME280;41086;46.736;15.666;2023-01-24T06:26:40;99699.94;;;-0.19;100.00
55217;BME280;41086;46.736;15.666;2023-01-24T06:29:10;99737.25;;;-0.10;100.00
55217;BME280;41086;46.736;15.666;2023-01-24T06:39:53;99738.91;;;0.07;100.00
55217;BME280;41086;46.736;15.666;2023-01-24T06:42:21;99729.34;;;0.04;100.00
55217;BME280;41086;46.736;15.666;2023-01-24T06:44:51;99746.69;;;0.13;100.00
55217;BME280;41086;46.736;15.666;2023-01-24T06:47:17;99739.81;;;0.01;100.00
55217;BME280;41086;46.736;15.666;2023-01-24T06:49:44;99699.91;;;-0.10;100.00
55217;BME280;41086;46.736;15.666;2023-01-24T06:52:11;99744.88;;;0.24;100.00
55217;BME280;41086;46.736;15.666;2023-01-24T06:54:39;99743.94;;;0.30;100.00
55217;BME280;41086;46.736;15.666;2023-01-24T06:57:05;99732.72;;;0.25;100.00
55217;BME280;41086;46.736;15.666;2023-01-24T06:59:32;99740.47;;;0.32;100.00
55217;BME280;41086;46.736;15.666;2023-01-24T07:01:59;99754.38;;;0.33;100.00
55217;BME280;41086;46.736;15.666;2023-01-24T07:04:26;99728.41;;;0.17;100.00
55217;BME280;41086;46.736;15.666;2023-01-24T07:06:53;99762.19;;;0.36;100.00
55217;BME280;41086;46.736;15.666;2023-01-24T07:09:21;99769.09;;;0.41;100.00
55217;BME280;41086;46.736;15.666;2023-01-24T07:11:48;99762.13;;;0.43;100.00
55217;BME280;41086;46.736;15.666;2023-01-24T07:14:19;99756.97;;;0.34;100.00
55217;BME280;41086;46.736;15.666;2023-01-24T07:16:46;99763.03;;;0.39;100.00
55217;BME280;41086;46.736;15.666;2023-01-24T07:19:16;99768.16;;;0.49;100.00
55217;BME280;41086;46.736;15.666;2023-01-24T07:21:43;99767.25;;;0.56;100.00
55217;BME280;41086;46.736;15.666;2023-01-24T07:24:16;99764.63;;;0.60;100.00
55217;BME280;41086;46.736;15.666;2023-01-24T07:26:44;99762.03;;;0.57;100.00
55217;BME280;41086;46.736;15.666;2023-01-24T07:29:10;99772.38;;;0.66;100.00
55217;BME280;41086;46.736;15.666;2023-01-24T07:31:38;99766.38;;;0.57;100.00
55217;BME280;41086;46.736;15.666;2023-01-24T07:34:05;99782.78;;;0.74;100.00
55217;BME280;41086;46.736;15.666;2023-01-24T07:36:31;99779.28;;;0.77;100.00
55217;BME280;41086;46.736;15.666;2023-01-24T07:38:58;99787.03;;;0.84;100.00
55217;BME280;41086;46.736;15.666;2023-01-24T07:41:25;99780.13;;;0.77;100.00
55217;BME280;41086;46.736;15.666;2023-01-24T07:43:53;99783.56;;;0.81;100.00
55217;BME280;41086;46.736;15.666;2023-01-24T07:46:20;99774.09;;;0.69;100.00
55217;BME280;41086;46.736;15.666;2023-01-24T07:48:46;99792.25;;;0.83;100.00
55217;BME280;41086;46.736;15.666;2023-01-24T07:51:14;99802.69;;;0.84;100.00
55217;BME280;41086;46.736;15.666;2023-01-24T07:53:40;99809.63;;;0.84;100.00
55217;BME280;41086;46.736;15.666;2023-01-24T07:56:07;99809.63;;;0.84;100.00
55217;BME280;41086;46.736;15.666;2023-01-24T07:58:46;99827.06;;;0.85;100.00
55217;BME280;41086;46.736;15.666;2023-01-24T08:01:20;99824.47;;;0.82;100.00
55217;BME280;41086;46.736;15.666;2023-01-24T08:03:47;99820.13;;;0.82;100.00
55217;BME280;41086;46.736;15.666;2023-01-24T08:06:14;99813.16;;;0.80;100.00
55217;BME280;41086;46.736;15.666;2023-01-24T08:08:41;99813.16;;;0.80;100.00
55217;BME280;41086;46.736;15.666;2023-01-24T08:11:08;99816.63;;;0.85;100.00
55217;BME280;41086;46.736;15.666;2023-01-24T08:13:37;99823.56;;;0.83;100.00
55217;BME280;41086;46.736;15.666;2023-01-24T08:16:04;99826.19;;;0.84;100.00
55217;BME280;41086;46.736;15.666;2023-01-24T08:18:32;99830.53;;;0.85;100.00
55217;BME280;41086;46.736;15.666;2023-01-24T08:20:59;99831.38;;;0.87;100.00
55217;BME280;41086;46.736;15.666;2023-01-24T08:23:26;99823.59;;;0.78;100.00
55217;BME280;41086;46.736;15.666;2023-01-24T08:25:53;99813.19;;;0.75;100.00
55217;BME280;41086;46.736;15.666;2023-01-24T08:28:20;99836.56;;;0.91;100.00
55217;BME280;41086;46.736;15.666;2023-01-24T08:30:46;99840.03;;;0.89;100.00
55217;BME280;41086;46.736;15.666;2023-01-24T08:33:13;99838.28;;;0.92;100.00
55217;BME280;41086;46.736;15.666;2023-01-24T08:35:46;99840.88;;;0.95;100.00
55217;BME280;41086;46.736;15.666;2023-01-24T08:38:14;99831.31;;;0.92;100.00
55217;BME280;41086;46.736;15.666;2023-01-24T08:40:42;99841.78;;;0.94;100.00
55217;BME280;41086;46.736;15.666;2023-01-24T08:43:16;99830.50;;;0.88;100.00
55217;BME280;41086;46.736;15.666;2023-01-24T08:45:43;99831.38;;;0.87;100.00
55217;BME280;41086;46.736;15.666;2023-01-24T08:48:10;99830.56;;;0.79;100.00
55217;BME280;41086;46.736;15.666;2023-01-24T08:50:37;99815.81;;;0.72;100.00
55217;BME280;41086;46.736;15.666;2023-01-24T08:53:03;99858.25;;;0.99;100.00
55217;BME280;41086;46.736;15.666;2023-01-24T08:55:30;99857.31;;;1.07;100.00
55217;BME280;41086;46.736;15.666;2023-01-24T08:58:01;99864.31;;;1.04;100.00
55217;BME280;41086;46.736;15.666;2023-01-24T09:00:29;99866.06;;;1.02;100.00
55217;BME280;41086;46.736;15.666;2023-01-24T09:02:56;99865.25;;;0.98;100.00
55217;BME280;41086;46.736;15.666;2023-01-24T09:05:28;99856.53;;;0.95;100.00
55217;BME280;41086;46.736;15.666;2023-01-24T09:07:55;99851.25;;;1.04;100.00
55217;BME280;41086;46.736;15.666;2023-01-24T09:10:22;99862.50;;;1.10;100.00
55217;BME280;41086;46.736;15.666;2023-01-24T09:12:50;99868.63;;;1.09;100.00
55217;BME280;41086;46.736;15.666;2023-01-24T09:15:17;99871.25;;;1.06;100.00
55217;BME280;41086;46.736;15.666;2023-01-24T09:17:44;99882.59;;;1.04;100.00
55217;BME280;41086;46.736;15.666;2023-01-24T09:20:11;99839.25;;;0.81;100.00
55217;BME280;41086;46.736;15.666;2023-01-24T09:22:38;99892.16;;;1.06;100.00
55217;BME280;41086;46.736;15.666;2023-01-24T09:25:05;99882.69;;;0.93;100.00
55217;BME280;41086;46.736;15.666;2023-01-24T09:27:35;99895.59;;;1.08;100.00
55217;BME280;41086;46.736;15.666;2023-01-24T09:30:03;99886.06;;;1.06;100.00
55217;BME280;41086;46.736;15.666;2023-01-24T09:32:31;99895.63;;;1.05;100.00
55217;BME280;41086;46.736;15.666;2023-01-24T09:34:58;99882.69;;;0.93;100.00
55217;BME280;41086;46.736;15.666;2023-01-24T09:37:25;99907.88;;;0.99;100.00
55217;BME280;41086;46.736;15.666;2023-01-24T09:39:52;99895.81;;;0.79;100.00
55217;BME280;41086;46.736;15.666;2023-01-24T09:42:25;99920.13;;;0.86;100.00
55217;BME280;41086;46.736;15.666;2023-01-24T09:45:14;99898.47;;;0.72;100.00
55217;BME280;41086;46.736;15.666;2023-01-24T09:47:53;99904.47;;;0.81;100.00
55217;BME280;41086;46.736;15.666;2023-01-24T09:50:24;99891.44;;;0.81;100.00
55217;BME280;41086;46.736;15.666;2023-01-24T09:52:55;99850.69;;;0.62;100.00
55217;BME280;41086;46.736;15.666;2023-01-24T09:55:24;99907.00;;;0.97;100.00
55217;BME280;41086;46.736;15.666;2023-01-24T09:57:56;99897.47;;;0.89;100.00
55217;BME280;41086;46.736;15.666;2023-01-24T10:00:29;99866.25;;;0.77;100.00
55217;BME280;41086;46.736;15.666;2023-01-24T10:02:59;99883.59;;;0.81;100.00
55217;BME280;41086;46.736;15.666;2023-01-24T10:05:38;99877.53;;;0.82;100.00
55217;BME280;41086;46.736;15.666;2023-01-24T10:16:52;99869.78;;;0.69;100.00
55217;BME280;41086;46.736;15.666;2023-01-24T10:24:35;99876.75;;;0.66;100.00
55217;BME280;41086;46.736;15.666;2023-01-24T10:27:16;99866.28;;;0.70;100.00
55217;BME280;41086;46.736;15.666;2023-01-24T10:29:47;99867.16;;;0.72;100.00
55217;BME280;41086;46.736;15.666;2023-01-24T10:32:29;99851.56;;;0.64;100.00
55217;BME280;41086;46.736;15.666;2023-01-24T10:34:59;99865.38;;;0.75;100.00
55217;BME280;41086;46.736;15.666;2023-01-24T10:37:33;99872.31;;;0.82;100.00
55217;BME280;41086;46.736;15.666;2023-01-24T10:40:11;99869.75;;;0.75;100.00
55217;BME280;41086;46.736;15.666;2023-01-24T10:42:38;99865.44;;;0.64;100.00
55217;BME280;41086;46.736;15.666;2023-01-24T10:45:48;99867.19;;;0.67;100.00
55217;BME280;41086;46.736;15.666;2023-01-24T10:48:41;99865.50;;;0.60;100.00
55217;BME280;41086;46.736;15.666;2023-01-24T10:51:16;99851.56;;;0.61;100.00
55217;BME280;41086;46.736;15.666;2023-01-24T10:53:43;99842.03;;;0.55;100.00
55217;BME280;41086;46.736;15.666;2023-01-24T10:56:12;99851.50;;;0.70;100.00
55217;BME280;41086;46.736;15.666;2023-01-24T10:58:54;99815.03;;;0.62;100.00
55217;BME280;41086;46.736;15.666;2023-01-24T11:01:25;99851.44;;;0.78;100.00
55217;BME280;41086;46.736;15.666;2023-01-24T11:03:57;99848.00;;;0.74;100.00
55217;BME280;41086;46.736;15.666;2023-01-24T11:06:37;99853.25;;;0.70;100.00
55217;BME280;41086;46.736;15.666;2023-01-24T11:09:13;99850.63;;;0.71;100.00
55217;BME280;41086;46.736;15.666;2023-01-24T11:11:51;99847.16;;;0.69;100.00
55217;BME280;41086;46.736;15.666;2023-01-24T11:14:21;99846.34;;;0.65;100.00
55217;BME280;41086;46.736;15.666;2023-01-24T11:16:51;99824.66;;;0.56;100.00
55217;BME280;41086;46.736;15.666;2023-01-24T11:19:34;99834.13;;;0.69;100.00
55217;BME280;41086;46.736;15.666;2023-01-24T11:24:49;99828.00;;;0.70;100.00
55217;BME280;41086;46.736;15.666;2023-01-24T11:27:20;99829.78;;;0.66;100.00
55217;BME280;41086;46.736;15.666;2023-01-24T11:30:15;99828.03;;;0.67;100.00
55217;BME280;41086;46.736;15.666;2023-01-24T11:35:34;99826.28;;;0.69;100.00
55217;BME280;41086;46.736;15.666;2023-01-24T11:38:22;99823.72;;;0.64;100.00
55217;BME280;41086;46.736;15.666;2023-01-24T11:41:30;99815.81;;;0.72;100.00
55217;BME280;41086;46.736;15.666;2023-01-24T11:44:38;99811.44;;;0.77;100.00
55217;BME280;41086;46.736;15.666;2023-01-24T11:47:15;99808.00;;;0.74;100.00
55217;BME280;41086;46.736;15.666;2023-01-24T11:50:06;99806.31;;;0.65;100.00
55217;BME280;41086;46.736;15.666;2023-01-24T11:53:02;99798.56;;;0.57;100.00
55217;BME280;41086;46.736;15.666;2023-01-24T12:03:42;99802.69;;;0.87;100.00
55217;BME280;41086;46.736;15.666;2023-01-24T12:09:02;99805.22;;;0.92;100.00
55217;BME280;41086;46.736;15.666;2023-01-24T12:11:43;99748.94;;;0.63;100.00
55217;BME280;41086;46.736;15.666;2023-01-24T12:14:44;99797.41;;;0.91;100.00
55217;BME280;41086;46.736;15.666;2023-01-24T12:17:41;99787.84;;;0.93;100.00
55217;BME280;41086;46.736;15.666;2023-01-24T12:23:35;99783.56;;;0.82;100.00
55217;BME280;41086;46.736;15.666;2023-01-24T12:26:14;99792.25;;;0.84;100.00
55217;BME280;41086;46.736;15.666;2023-01-24T12:31:35;99788.81;;;0.79;100.00
55217;BME280;41086;46.736;15.666;2023-01-24T12:40:05;99793.09;;;0.86;100.00
55217;BME280;41086;46.736;15.666;2023-01-24T12:42:57;99797.41;;;0.89;100.00
55217;BME280;41086;46.736;15.666;2023-01-24T12:48:13;99787.72;;;1.06;100.00
55217;BME280;41086;46.736;15.666;2023-01-24T12:59:10;99777.19;;;1.14;100.00
55217;BME280;41086;46.736;15.666;2023-01-24T13:07:30;99781.66;;;1.00;100.00
55217;BME280;41086;46.736;15.666;2023-01-24T13:13:03;99780.72;;;1.10;100.00
55217;BME280;41086;46.736;15.666;2023-01-24T13:15:40;99785.09;;;1.06;100.00
55217;BME280;41086;46.736;15.666;2023-01-24T13:29:47;99738.38;;;0.76;100.00
55217;BME280;41086;46.736;15.666;2023-01-24T13:32:20;99766.09;;;0.91;100.00
55217;BME280;41086;46.736;15.666;2023-01-24T13:34:51;99797.28;;;1.03;100.00
55217;BME280;41086;46.736;15.666;2023-01-24T13:37:31;99797.28;;;1.03;100.00
55217;BME280;41086;46.736;15.666;2023-01-24T13:40:05;99756.66;;;0.79;100.00
55217;BME280;41086;46.736;15.666;2023-01-24T13:42:36;99802.50;;;1.09;100.00
55217;BME280;41086;46.736;15.666;2023-01-24T13:47:53;99801.50;;;1.21;100.00
55217;BME280;41086;46.736;15.666;2023-01-24T13:50:29;99793.63;;;1.25;100.00
55217;BME280;41086;46.736;15.666;2023-01-24T13:52:58;99778.88;;;1.20;100.00
55217;BME280;41086;46.736;15.666;2023-01-24T14:05:51;99750.34;;;1.01;100.00
55217;BME280;41086;46.736;15.666;2023-01-24T14:10:48;99788.34;;;1.31;100.00
55217;BME280;41086;46.736;15.666;2023-01-24T14:18:59;99807.44;;;1.37;100.00
55217;BME280;41086;46.736;15.666;2023-01-24T14:27:15;99810.13;;;1.27;100.00
55217;BME280;41086;46.736;15.666;2023-01-24T14:29:46;99791.84;;;1.30;100.00
55217;BME280;41086;46.736;15.666;2023-01-24T14:32:24;99796.88;;;1.46;100.00
55217;BME280;41086;46.736;15.666;2023-01-24T14:35:19;99822.00;;;1.59;100.00
55217;BME280;41086;46.736;15.666;2023-01-24T14:37:45;99828.91;;;1.65;100.00
55217;BME280;41086;46.736;15.666;2023-01-24T14:42:40;99835.00;;;1.68;100.00
55217;BME280;41086;46.736;15.666;2023-01-24T14:45:14;99829.75;;;1.68;100.00
55217;BME280;41086;46.736;15.666;2023-01-24T14:47:46;99810.69;;;1.57;100.00
55217;BME280;41086;46.736;15.666;2023-01-24T14:50:26;99818.50;;;1.63;100.00
55217;BME280;41086;46.736;15.666;2023-01-24T14:52:53;99793.41;;;1.45;100.00
55217;BME280;41086;46.736;15.666;2023-01-24T14:55:38;99814.19;;;1.58;100.00
55217;BME280;41086;46.736;15.666;2023-01-24T14:58:15;99808.97;;;1.54;100.00
55217;BME280;41086;46.736;15.666;2023-01-24T15:00:43;99795.16;;;1.45;100.00
55217;BME280;41086;46.736;15.666;2023-01-24T15:03:18;99809.91;;;1.49;100.00
55217;BME280;41086;46.736;15.666;2023-01-24T15:06:06;99807.28;;;1.49;100.00
55217;BME280;41086;46.736;15.666;2023-01-24T15:08:34;99808.22;;;1.43;100.00
55217;BME280;41086;46.736;15.666;2023-01-24T15:11:04;99812.63;;;1.40;100.00
55217;BME280;41086;46.736;15.666;2023-01-24T15:13:41;99809.22;;;1.33;100.00
55217;BME280;41086;46.736;15.666;2023-01-24T15:16:28;99807.41;;;1.38;100.00
55217;BME280;41086;46.736;15.666;2023-01-24T15:19:04;99751.91;;;1.16;100.00